Data for 01/20/2006

Time Sea-Level Adjusted Pressure Absolute Pressure Temperature Relative Humidity Dew Point   
(mb) (inHg) (mb) (inHg) (C) (F) (%) (C) (F)
00:05 1015 29.97 845 24.95 -2.2 28.1 58 -9.4 15
00:10 1015 29.97 845 24.95 -2.1 28.2 57 -9.5 14.8
00:15 1016 30 845 24.95 -2.1 28.2 58 -9.3 15.2
00:20 1016 30 845 24.95 -2.2 28.1 58 -9.4 15.1
00:25 1016 30 845 24.95 -2.2 28 59 -9.3 15.2
00:30 1016 30 845 24.95 -2.2 28 59 -9.3 15.3
00:35 1016 30 845 24.95 -2.2 28 59 -9.2 15.5
00:40 1016 30 845 24.95 -2.2 28.1 57 -9.6 14.7
00:45 1016 30 845 24.95 -2.1 28.2 55 -10 13.9
00:50 1016 30 845 24.95 -2 28.4 54 -10.1 13.8
00:55 1016 30 845 24.95 -1.9 28.5 52 -10.6 12.9
01:00 1015 29.97 845 24.95 -1.7 28.9 52 -10.3 13.4
01:05 1016 30 845 24.95 -1.7 28.9 53 -10.2 13.7
01:10 1015 29.97 845 24.95 -1.8 28.7 54 -9.9 14.2
01:15 1015 29.97 845 24.95 -1.9 28.6 53 -10.3 13.4
01:20 1015 29.97 845 24.95 -1.8 28.7 53 -10.2 13.6
01:25 1015 29.97 845 24.95 -1.9 28.7 54 -10.1 13.8
01:30 1015 29.97 845 24.95 -1.9 28.6 50 -10.8 12.5
01:35 1015 29.97 845 24.95 -1.8 28.7 52 -10.4 13.4
01:40 1015 29.97 845 24.95 -1.9 28.5 53 -10.3 13.5
01:45 1015 29.97 845 24.95 -2 28.4 54 -10.2 13.6
01:50 1015 29.97 845 24.95 -2.1 28.2 54 -10.1 13.7
01:55 1015 29.97 845 24.95 -2.2 28 55 -10.1 13.7
02:00 1015 29.97 845 24.95 -2.1 28.2 54 -10.2 13.6
02:05 1015 29.97 845 24.95 -2.1 28.2 54 -10.3 13.5
02:10 1016 30 845 24.95 -2.2 28.1 54 -10.4 13.4
02:15 1016 30 845 24.95 -2.2 28.1 54 -10.3 13.5
02:20 1016 30 845 24.95 -2.2 28.1 53 -10.5 13
02:25 1016 30 845 24.95 -2.1 28.2 53 -10.4 13.3
02:30 1016 30 845 24.95 -2.2 28.1 53 -10.4 13.2
02:35 1016 30 845 24.95 -2.2 28.1 54 -10.2 13.7
02:40 1016 30 845 24.95 -2.2 28.1 53 -10.4 13.2
02:45 1016 30 845 24.95 -2.2 28.1 54 -10.2 13.6
02:50 1016 30 845 24.95 -2 28.4 52 -10.5 13
02:55 1015 29.97 845 24.95 -2 28.5 52 -10.5 13.1
03:00 1016 30 845 24.95 -1.9 28.6 52 -10.4 13.2
03:05 1016 30 845 24.95 -1.9 28.5 54 -10 14
03:10 1016 30 845 24.95 -2 28.3 55 -9.9 14.2
03:15 1016 30 845 24.95 -2.1 28.3 55 -10 13.9
03:20 1016 30 845 24.95 -2.1 28.2 55 -10.1 13.9
03:25 1015 29.97 845 24.95 -2.2 28.1 55 -10 14.1
03:30 1016 30 845 24.95 -2.2 28.1 55 -10.2 13.7
03:35 1015 29.97 845 24.95 -2.1 28.2 53 -10.4 13.2
03:40 1015 29.97 845 24.95 -2 28.4 53 -10.4 13.2
03:45 1015 29.97 845 24.95 -1.9 28.5 52 -10.4 13.2
03:50 1015 29.97 845 24.95 -2 28.5 51 -10.8 12.6
03:55 1015 29.97 845 24.95 -2 28.5 51 -10.8 12.6
04:00 1015 29.97 845 24.95 -1.9 28.5 51 -10.8 12.5
04:05 1015 29.97 845 24.95 -1.9 28.5 51 -10.7 12.8
04:10 1015 29.97 845 24.95 -1.9 28.6 51 -10.7 12.8
04:15 1015 29.97 845 24.95 -1.9 28.5 52 -10.6 13
04:20 1015 29.97 845 24.95 -2 28.4 51 -10.8 12.6
04:25 1015 29.97 845 24.95 -2 28.3 52 -10.7 12.7
04:30 1016 30 845 24.95 -2.1 28.2 53 -10.5 13.1
04:35 1016 30 845 24.95 -2.2 28 53 -10.5 13.1
04:40 1015 29.97 845 24.95 -2.3 27.8 53 -10.7 12.8
04:45 1015 29.97 845 24.95 -2.2 28 52 -10.8 12.5
04:50 1015 29.97 845 24.95 -2.1 28.2 51 -10.9 12.3
04:55 1015 29.97 845 24.95 -2.2 28.1 52 -10.6 12.9
05:00 1015 29.97 844 24.92 -2.3 27.8 53 -10.8 12.6
05:05 1015 29.97 844 24.92 -2.4 27.7 53 -10.7 12.7
05:10 1015 29.97 844 24.92 -2.4 27.6 53 -10.7 12.7
05:15 1015 29.97 844 24.92 -2.5 27.6 53 -10.8 12.5
05:20 1015 29.97 844 24.92 -2.5 27.5 52 -11 12.2
05:25 1015 29.97 844 24.92 -2.4 27.6 52 -11 12.2
05:30 1015 29.97 844 24.92 -2.4 27.6 52 -11.1 12.1
05:35 1015 29.97 844 24.92 -2.4 27.6 53 -10.8 12.6
05:40 1015 29.97 844 24.92 -2.5 27.4 53 -10.8 12.5
05:45 1015 29.97 845 24.95 -2.6 27.4 52 -11.1 12
05:50 1015 29.97 845 24.95 -2.5 27.6 52 -11.1 12
05:55 1015 29.97 845 24.95 -2.4 27.6 51 -11.3 11.7
06:00 1015 29.97 845 24.95 -2.6 27.4 52 -11.1 12
06:05 1015 29.97 845 24.95 -2.6 27.3 52 -11.2 11.8
06:10 1015 29.97 845 24.95 -2.6 27.3 52 -11.3 11.7
06:15 1015 29.97 845 24.95 -2.6 27.3 53 -11 12.2
06:20 1015 29.97 845 24.95 -2.8 27 52 -11.3 11.7
06:25 1015 29.97 845 24.95 -2.6 27.3 51 -11.4 11.4
06:30 1015 29.97 844 24.92 -2.5 27.5 49 -11.7 10.9
06:35 1015 29.97 844 24.92 -2.4 27.7 48 -11.9 10.6
06:40 1015 29.97 844 24.92 -2.3 27.9 48 -11.7 10.9
06:45 1015 29.97 844 24.92 -2.3 27.9 49 -11.8 10.8
06:50 1015 29.97 844 24.92 -2.3 27.9 48 -11.9 10.6
06:55 1015 29.97 844 24.92 -2.2 28.1 47 -12 10.5
07:00 1015 29.97 844 24.92 -2.3 27.8 48 -11.9 10.6
07:05 1015 29.97 844 24.92 -2.3 27.8 48 -11.9 10.7
07:10 1015 29.97 844 24.92 -2.5 27.6 49 -11.8 10.8
07:15 1015 29.97 844 24.92 -2.8 26.9 51 -11.6 11.1
07:20 1015 29.97 844 24.92 -3.2 26.2 49 -12.4 9.7
07:25 1015 29.97 844 24.92 -3.5 25.7 50 -12.4 9.7
07:30 1015 29.97 844 24.92 -3.3 26.1 48 -12.8 8.9
07:35 1015 29.97 844 24.92 -2.8 26.9 46 -12.9 8.9
07:40 1015 29.97 844 24.92 -2.6 27.4 46 -12.7 9.1
07:45 1015 29.97 844 24.92 -2.5 27.5 46 -12.5 9.4
07:50 1015 29.97 844 24.92 -2.5 27.6 46 -12.6 9.4
07:55 1015 29.97 844 24.92 -2.1 28.2 43 -13 8.5
08:00 1015 29.97 844 24.92 -2 28.4 43 -12.9 8.8
08:05 1015 29.97 844 24.92 -2 28.5 44 -12.6 9.4
08:10 1015 29.97 844 24.92 -2.2 28.1 44 -12.8 8.9
08:15 1015 29.97 844 24.92 -2.3 27.9 45 -12.7 9.2
08:20 1015 29.97 844 24.92 -2.5 27.5 46 -12.5 9.5
08:25 1015 29.97 844 24.92 -2.7 27.1 47 -12.6 9.4
08:30 1015 29.97 844 24.92 -3.2 26.2 49 -12.5 9.6
08:35 1015 29.97 844 24.92 -3.5 25.8 50 -12.4 9.7
08:40 1015 29.97 844 24.92 -3 26.6 46 -13 8.6
08:45 1015 29.97 844 24.92 -2.7 27.2 46 -12.6 9.3
08:50 1015 29.97 844 24.92 -2.6 27.3 45 -13 8.6
08:55 1015 29.97 844 24.92 -2.6 27.3 45 -12.9 8.8
09:00 1015 29.97 844 24.92 -2.7 27.2 46 -12.8 8.9
09:05 1015 29.97 844 24.92 -2.7 27.1 45 -13 8.6
09:10 1015 29.97 844 24.92 -2.2 28 44 -12.8 9
09:15 1015 29.97 844 24.92 -1.9 28.6 44 -12.5 9.5
09:20 1015 29.97 844 24.92 -1.8 28.7 44 -12.6 9.3
09:25 1015 29.97 844 24.92 -1.2 29.9 44 -11.9 10.6
09:30 1015 29.97 844 24.92 -1 30.2 45 -11.5 11.3
09:35 1015 29.97 844 24.92 -0.8 30.5 44 -11.7 11
09:40 1015 29.97 844 24.92 -0.6 30.9 40 -12.6 9.2
09:45 1015 29.97 844 24.92 -0.2 31.6 39 -12.5 9.5
09:50 1015 29.97 844 24.92 -0.2 31.7 38 -12.7 9.1
09:55 1015 29.97 844 24.92 -0.5 31.2 40 -12.6 9.3
10:00 1015 29.97 844 24.92 -0.7 30.7 40 -12.6 9.2
10:05 1015 29.97 844 24.92 -0.7 30.7 40 -12.7 9.1
10:10 1015 29.97 844 24.92 -0.4 31.2 40 -12.5 9.4
10:15 1015 29.97 844 24.92 -0.1 31.8 40 -12.1 10.3
10:20 1015 29.97 844 24.92 0.1 32.1 39 -12.4 9.6
10:25 1015 29.97 844 24.92 0 32 39 -12.4 9.7
10:30 1015 29.97 844 24.92 0.3 32.6 38 -12.5 9.6
10:35 1015 29.97 844 24.92 0.3 32.5 40 -11.8 10.7
10:40 1015 29.97 844 24.92 0.2 32.4 38 -12.4 9.7
10:45 1015 29.97 844 24.92 0.6 33.2 35 -13 8.6
10:50 1015 29.97 844 24.92 0.7 33.3 36 -12.6 9.3
10:55 1015 29.97 844 24.92 0.7 33.3 35 -13.1 8.4
11:00 1014 29.94 844 24.92 1.2 34.2 33 -13.2 8.2
11:05 1014 29.94 844 24.92 1.4 34.5 33 -13.1 8.5
11:10 1014 29.94 844 24.92 1.5 34.7 34 -12.7 9.2
11:15 1014 29.94 844 24.92 2 35.6 33 -12.7 9.2
11:20 1014 29.94 843 24.89 2.8 37 32 -12.5 9.4
11:25 1014 29.94 844 24.92 3.3 38 31 -12.2 10
11:30 1014 29.94 843 24.89 3.3 38 32 -12 10.5
11:35 1014 29.94 843 24.89 3.2 37.7 33 -11.6 11.1
11:40 1014 29.94 843 24.89 3.2 37.7 33 -11.8 10.8
11:45 1014 29.94 843 24.89 3.2 37.7 31 -12.2 10
11:50 1014 29.94 843 24.89 3.2 37.7 31 -12.4 9.6
11:55 1014 29.94 843 24.89 3.4 38.2 30 -12.4 9.7
12:00 1014 29.94 843 24.89 3.7 38.6 30 -12.3 9.9
12:05 1014 29.94 843 24.89 3.5 38.3 32 -11.9 10.6
12:10 1014 29.94 843 24.89 3.4 38.1 32 -11.9 10.5
12:15 1014 29.94 843 24.89 3.3 38 32 -11.7 10.9
12:20 1014 29.94 843 24.89 3.3 38 33 -11.4 11.5
12:25 1013 29.91 843 24.89 3.5 38.3 31 -12.2 10
12:30 1013 29.91 843 24.89 2.6 36.6 32 -12.7 9.1
12:35 1013 29.91 842 24.86 2.8 37 32 -12.4 9.7
12:40 1013 29.91 842 24.86 3.5 38.3 31 -12 10.3
12:45 1013 29.91 842 24.86 4.3 39.7 30 -11.7 10.9
12:50 1013 29.91 842 24.86 4.2 39.6 31 -11.3 11.6
12:55 1013 29.91 842 24.86 3.4 38.1 34 -11 12.3
13:00 1013 29.91 842 24.86 2.7 36.9 35 -11.3 11.6
13:05 1013 29.91 842 24.86 2.3 36.1 38 -10.5 13.1
13:10 1013 29.91 842 24.86 2.2 35.9 37 -11 12.3
13:15 1013 29.91 842 24.86 2.1 35.8 36 -11.4 11.4
13:20 1013 29.91 842 24.86 2.2 35.9 36 -11.4 11.5
13:25 1013 29.91 842 24.86 1.9 35.4 40 -10.3 13.4
13:30 1013 29.91 842 24.86 1.7 35.1 39 -10.7 12.7
13:35 1013 29.91 842 24.86 1.3 34.3 40 -10.9 12.3
13:40 1013 29.91 842 24.86 0.7 33.2 40 -11.6 11.1
13:45 1012 29.88 842 24.86 0.4 32.8 43 -10.8 12.6
13:50 1012 29.88 842 24.86 0.4 32.8 38 -12.3 9.9
13:55 1012 29.88 841 24.83 0.5 32.9 39 -11.8 10.7
14:00 1012 29.88 841 24.83 0.3 32.6 41 -11.5 11.3
14:05 1012 29.88 842 24.86 0.3 32.5 41 -11.5 11.4
14:10 1012 29.88 842 24.86 0.4 32.8 37 -12.5 9.5
14:15 1012 29.88 841 24.83 0.8 33.4 37 -12.3 9.9
14:20 1012 29.88 842 24.86 1.1 33.9 35 -12.7 9.1
14:25 1012 29.88 842 24.86 1 33.7 36 -12.5 9.5
14:30 1012 29.88 842 24.86 1.1 34 37 -12 10.4
14:35 1012 29.88 842 24.86 1.6 34.8 35 -12.2 10
14:40 1012 29.88 842 24.86 1.9 35.4 34 -12.3 9.9
14:45 1012 29.88 842 24.86 1.9 35.4 35 -12.1 10.2
14:50 1012 29.88 842 24.86 1.5 34.7 34 -12.6 9.3
14:55 1012 29.88 842 24.86 1.1 34 37 -12 10.4
15:00 1012 29.88 842 24.86 1.5 34.8 35 -12.2 10.1
15:05 1012 29.88 842 24.86 2 35.5 34 -12.2 10.1
15:10 1012 29.88 842 24.86 1.8 35.3 37 -11.5 11.3
15:15 1012 29.88 842 24.86 1.6 34.9 39 -11.1 12.1
15:20 1012 29.88 842 24.86 1.5 34.7 38 -11.2 11.8
15:25 1012 29.88 842 24.86 1.4 34.4 40 -10.8 12.6
15:30 1012 29.88 842 24.86 1.4 34.5 40 -10.9 12.3
15:35 1012 29.88 842 24.86 1.3 34.3 39 -11.1 12.1
15:40 1012 29.88 842 24.86 1.4 34.5 39 -11 12.1
15:45 1012 29.88 842 24.86 1.4 34.5 38 -11.5 11.3
15:50 1012 29.88 841 24.83 1.3 34.3 39 -11.3 11.7
15:55 1012 29.88 841 24.83 1.1 34.1 41 -10.8 12.5
16:00 1012 29.88 841 24.83 0.9 33.6 41 -10.8 12.5
16:05 1012 29.88 841 24.83 0.8 33.5 40 -11.2 11.8
16:10 1012 29.88 841 24.83 1 33.8 41 -10.8 12.6
16:15 1012 29.88 841 24.83 0.8 33.4 42 -10.6 13
16:20 1012 29.88 841 24.83 0.8 33.4 43 -10.4 13.3
16:25 1012 29.88 841 24.83 0.8 33.4 42 -10.6 12.9
16:30 1012 29.88 841 24.83 0.5 32.8 45 -10.3 13.5
16:35 1012 29.88 841 24.83 0.3 32.5 45 -10.4 13.3
16:40 1012 29.88 841 24.83 0.2 32.3 47 -9.8 14.3
16:45 1012 29.88 841 24.83 -0.1 31.9 48 -9.7 14.5
16:50 1012 29.88 841 24.83 0.1 32.2 49 -9.4 15.1
16:55 1012 29.88 841 24.83 0.2 32.4 49 -9.2 15.5
17:00 1012 29.88 841 24.83 0.1 32.2 45 -10.4 13.3
17:05 1012 29.88 841 24.83 0.2 32.3 43 -11.1 12
17:10 1012 29.88 841 24.83 0.6 33 46 -9.7 14.6
17:15 1012 29.88 841 24.83 0.3 32.6 49 -9.3 15.2
17:20 1012 29.88 841 24.83 0 32 45 -10.5 13.2
17:25 1012 29.88 841 24.83 0.3 32.5 42 -11.1 12
17:30 1012 29.88 841 24.83 0.4 32.7 43 -10.9 12.5
17:35 1012 29.88 841 24.83 0.4 32.7 43 -10.7 12.7
17:40 1012 29.88 841 24.83 0.2 32.3 46 -10.2 13.6
17:45 1012 29.88 841 24.83 0.2 32.3 48 -9.7 14.6
17:50 1012 29.88 841 24.83 0.1 32.3 46 -10.2 13.6
17:55 1012 29.88 841 24.83 0.1 32.2 45 -10.5 13.1
18:00 1012 29.88 841 24.83 0.2 32.3 45 -10.3 13.5
18:05 1012 29.88 841 24.83 0.1 32.2 47 -9.8 14.3
18:10 1012 29.88 841 24.83 0.1 32.3 45 -10.4 13.3
18:15 1012 29.88 841 24.83 0.1 32.2 45 -10.4 13.3
18:20 1012 29.88 841 24.83 -0.1 31.8 46 -10.4 13.2
18:25 1012 29.88 841 24.83 -0.4 31.2 48 -10.2 13.6
18:30 1012 29.88 841 24.83 -0.7 30.8 50 -9.9 14.2
18:35 1012 29.88 841 24.83 -0.7 30.7 49 -10.3 13.5
18:40 1012 29.88 841 24.83 -0.8 30.6 52 -9.4 15
18:45 1012 29.88 841 24.83 -0.8 30.6 51 -9.8 14.4
18:50 1012 29.88 841 24.83 -0.6 30.9 48 -10.3 13.4
18:55 1012 29.88 841 24.83 -0.6 30.9 48 -10.2 13.6
19:00 1012 29.88 841 24.83 -0.4 31.3 50 -9.7 14.6
19:05 1012 29.88 841 24.83 -0.2 31.6 49 -9.6 14.7
19:10 1012 29.88 841 24.83 -0.3 31.4 48 -10 14
19:15 1012 29.88 841 24.83 -0.4 31.3 47 -10.3 13.4
19:20 1012 29.88 841 24.83 -0.3 31.5 49 -9.6 14.7
19:25 1012 29.88 841 24.83 -0.2 31.6 48 -10 13.9
19:30 1012 29.88 841 24.83 -0.4 31.4 47 -10.3 13.5
19:35 1012 29.88 841 24.83 -0.5 31 49 -10 13.9
19:40 1012 29.88 841 24.83 -0.6 30.9 49 -10.1 13.8
19:45 1012 29.88 841 24.83 -0.6 31 47 -10.6 12.9
19:50 1012 29.88 841 24.83 -0.3 31.4 46 -10.7 12.7
19:55 1012 29.88 841 24.83 -0.4 31.4 47 -10.4 13.2
20:00 1012 29.88 841 24.83 -0.5 31.2 47 -10.5 13.1
20:05 1012 29.88 841 24.83 -0.5 31.1 47 -10.6 13
20:10 1012 29.88 841 24.83 -0.5 31.2 47 -10.5 13
20:15 1012 29.88 841 24.83 -0.4 31.3 45 -10.8 12.6
20:20 1012 29.88 841 24.83 -0.4 31.3 47 -10.4 13.2
20:25 1012 29.88 841 24.83 -0.5 31.2 47 -10.4 13.3
20:30 1012 29.88 841 24.83 -0.4 31.3 47 -10.4 13.2
20:35 1012 29.88 841 24.83 -0.4 31.3 47 -10.3 13.4
20:40 1012 29.88 841 24.83 -0.2 31.6 49 -9.8 14.4
20:45 1012 29.88 841 24.83 -0.2 31.7 50 -9.5 14.9
20:50 1012 29.88 841 24.83 -0.2 31.6 48 -9.8 14.3
20:55 1012 29.88 841 24.83 -0.4 31.4 49 -9.7 14.5
21:00 1012 29.88 841 24.83 -0.6 30.8 52 -9.4 15
21:05 1012 29.88 841 24.83 -0.9 30.4 52 -9.5 14.8
21:10 1012 29.88 841 24.83 -1.1 30.1 52 -9.7 14.5
21:15 1012 29.88 841 24.83 -0.9 30.4 52 -9.6 14.7
21:20 1012 29.88 841 24.83 -0.8 30.6 52 -9.3 15.2
21:25 1012 29.88 841 24.83 -0.6 31 53 -9.1 15.7
21:30 1012 29.88 841 24.83 -0.6 31 53 -8.9 15.9
21:35 1012 29.88 841 24.83 -0.7 30.7 53 -9.2 15.4
21:40 1012 29.88 841 24.83 -0.7 30.7 51 -9.7 14.6
21:45 1012 29.88 841 24.83 -0.7 30.7 51 -9.6 14.7
21:50 1012 29.88 841 24.83 -0.7 30.7 51 -9.6 14.7
21:55 1012 29.88 841 24.83 -1 30.3 53 -9.5 14.9
22:00 1012 29.88 841 24.83 -0.8 30.5 47 -10.7 12.7
22:05 1012 29.88 841 24.83 -0.5 31 48 -10.3 13.5
22:10 1012 29.88 841 24.83 -0.6 30.9 50 -9.7 14.5
22:15 1012 29.88 841 24.83 -0.8 30.6 50 -10 13.9
22:20 1012 29.88 841 24.83 -0.7 30.7 49 -10.1 13.8
22:25 1012 29.88 841 24.83 -0.8 30.5 50 -10.1 13.8
22:30 1012 29.88 841 24.83 -0.8 30.6 52 -9.5 14.9
22:35 1012 29.88 841 24.83 -0.9 30.4 50 -10 13.9
22:40 1012 29.88 841 24.83 -0.8 30.6 48 -10.5 13.2
22:45 1012 29.88 841 24.83 -0.6 31 49 -9.9 14.1
22:50 1012 29.88 842 24.86 -0.7 30.8 51 -9.7 14.5
22:55 1012 29.88 842 24.86 -0.8 30.6 49 -10.1 13.8
23:00 1012 29.88 842 24.86 -0.8 30.6 50 -10 14
23:05 1012 29.88 842 24.86 -0.8 30.6 52 -9.6 14.8
23:10 1012 29.88 842 24.86 -0.9 30.5 50 -10.1 13.8
23:15 1012 29.88 842 24.86 -0.7 30.7 51 -9.7 14.6
23:20 1012 29.88 842 24.86 -0.8 30.6 50 -10 14
23:25 1012 29.88 842 24.86 -0.7 30.7 51 -9.7 14.5
23:30 1012 29.88 842 24.86 -0.7 30.7 49 -10.1 13.8
23:35 1013 29.91 842 24.86 -0.7 30.8 51 -9.7 14.5
23:40 1013 29.91 842 24.86 -0.7 30.7 51 -9.7 14.5
23:45 1013 29.91 842 24.86 -0.7 30.8 51 -9.6 14.8
23:50 1013 29.91 842 24.86 -0.7 30.8 52 -9.5 15
23:55 1013 29.91 842 24.86 -0.7 30.7 52 -9.5 14.9
24:00 1013 29.91 842 24.86 -0.7 30.7 51 -9.6 14.7